TimeEDT,TemperatureF,Dew PointF,Humidity,Sea Level PressureIn,VisibilityMPH,Wind Direction,Wind SpeedMPH,Gust SpeedMPH,PrecipitationIn,Events,Conditions,WindDirDegrees,DateUTC
12:15 AM,38.8,36.3,91,30.19,10.0,Calm,Calm,-,N/A,,Clear,0,2012-10-12 04:15:00
1:15 AM,40.3,37.9,91,30.19,10.0,South,4.6,-,N/A,,Clear,170,2012-10-12 05:15:00
1:35 AM,41.4,38.8,91,30.19,10.0,Calm,Calm,-,N/A,,Clear,0,2012-10-12 05:35:00
1:55 AM,40.6,37.6,89,30.19,10.0,Calm,Calm,-,N/A,,Clear,0,2012-10-12 05:55:00
2:15 AM,38.7,35.6,89,30.19,10.0,Calm,Calm,-,N/A,,Clear,0,2012-10-12 06:15:00
2:55 AM,37.0,34.5,91,30.19,10.0,Calm,Calm,-,N/A,,Clear,0,2012-10-12 06:55:00
4:15 AM,37.0,34.5,91,30.18,10.0,Calm,Calm,-,N/A,,Clear,0,2012-10-12 08:15:00
4:35 AM,36.9,34.5,91,30.18,7.0,Calm,Calm,-,N/A,,Clear,0,2012-10-12 08:35:00
4:55 AM,36.1,33.8,91,30.19,7.0,Calm,Calm,-,N/A,,Clear,0,2012-10-12 08:55:00
5:15 AM,36.0,33.6,91,30.19,7.0,Calm,Calm,-,N/A,,Clear,0,2012-10-12 09:15:00
5:35 AM,36.5,34.5,93,30.20,7.0,Calm,Calm,-,N/A,,Clear,0,2012-10-12 09:35:00
5:55 AM,36.7,34.5,92,30.19,7.0,Calm,Calm,-,N/A,,Clear,0,2012-10-12 09:55:00
6:15 AM,36.7,34.7,93,30.20,7.0,Calm,Calm,-,N/A,,Clear,0,2012-10-12 10:15:00
6:35 AM,36.9,34.7,92,30.22,10.0,Calm,Calm,-,N/A,,Clear,0,2012-10-12 10:35:00
6:55 AM,36.5,34.5,93,30.22,4.0,Calm,Calm,-,N/A,,Clear,0,2012-10-12 10:55:00
7:15 AM,35.2,33.3,92,30.22,4.0,Calm,Calm,-,N/A,,Clear,0,2012-10-12 11:15:00
7:35 AM,33.3,31.8,94,30.23,7.0,Calm,Calm,-,N/A,,Clear,0,2012-10-12 11:35:00
7:55 AM,34.0,32.2,93,30.23,5.0,Calm,Calm,-,N/A,,Clear,0,2012-10-12 11:55:00
8:15 AM,34.3,32.4,92,30.23,5.0,Calm,Calm,-,N/A,,Clear,0,2012-10-12 12:15:00
8:35 AM,37.6,35.8,93,30.24,5.0,Calm,Calm,-,N/A,,Clear,0,2012-10-12 12:35:00
8:55 AM,40.3,37.8,91,30.24,4.0,Calm,Calm,-,N/A,,Clear,0,2012-10-12 12:55:00
9:15 AM,43.3,39.7,87,30.25,5.0,Calm,Calm,-,N/A,,Clear,0,2012-10-12 13:15:00
9:35 AM,45.9,40.8,83,30.25,7.0,Calm,Calm,-,N/A,,Clear,0,2012-10-12 13:35:00
9:55 AM,50.9,42.8,74,30.25,7.0,Calm,Calm,-,N/A,,Clear,0,2012-10-12 13:55:00
10:15 AM,56.3,39.9,54,30.25,7.0,Calm,Calm,-,N/A,,Clear,0,2012-10-12 14:15:00
10:55 AM,61.2,38.3,43,30.25,10.0,NW,11.5,18.4,N/A,,Clear,310,2012-10-12 14:55:00
11:15 AM,61.9,37.2,40,30.26,10.0,WNW,9.2,16.1,N/A,,Clear,300,2012-10-12 15:15:00
11:35 AM,61.9,37.4,40,30.26,10.0,NW,12.7,18.4,N/A,,Clear,320,2012-10-12 15:35:00
12:15 PM,62.8,38.5,41,30.27,10.0,NW,9.2,18.4,N/A,,Clear,320,2012-10-12 16:15:00
12:35 PM,62.8,38.8,41,30.27,10.0,NNW,9.2,17.3,N/A,,Clear,340,2012-10-12 16:35:00
12:55 PM,62.8,38.7,41,30.26,10.0,North,8.1,-,N/A,,Clear,350,2012-10-12 16:55:00
1:15 PM,62.6,40.3,44,30.27,10.0,NNE,10.4,16.1,N/A,,Clear,20,2012-10-12 17:15:00
1:35 PM,61.2,41.0,47,30.27,10.0,ENE,12.7,16.1,N/A,,Clear,60,2012-10-12 17:35:00
1:55 PM,61.5,40.8,47,30.27,10.0,NNW,10.4,20.7,N/A,,Scattered Clouds,340,2012-10-12 17:55:00
2:35 PM,58.5,40.3,51,30.29,10.0,NNW,17.3,24.2,N/A,,Overcast,330,2012-10-12 18:35:00
3:35 PM,59.0,40.1,50,30.32,10.0,WNW,10.4,16.1,N/A,,Mostly Cloudy,300,2012-10-12 19:35:00
4:15 PM,58.5,38.7,48,30.31,10.0,NW,9.2,-,N/A,,Scattered Clouds,320,2012-10-12 20:15:00
4:55 PM,58.5,38.8,48,30.32,10.0,NNE,5.8,-,N/A,,Scattered Clouds,20,2012-10-12 20:55:00
5:15 PM,57.7,36.3,45,30.32,10.0,NNE,5.8,-,N/A,,Clear,20,2012-10-12 21:15:00
5:35 PM,57.4,35.6,44,30.33,10.0,North,5.8,-,N/A,,Clear,10,2012-10-12 21:35:00
5:55 PM,56.7,33.8,42,30.33,10.0,North,3.5,-,N/A,,Clear,10,2012-10-12 21:55:00
6:15 PM,55.6,33.8,44,30.34,10.0,North,4.6,-,N/A,,Clear,360,2012-10-12 22:15:00
6:35 PM,53.6,32.7,45,30.35,10.0,North,5.8,-,N/A,,Clear,360,2012-10-12 22:35:00
7:15 PM,50.7,33.1,51,30.37,10.0,Calm,Calm,-,N/A,,Clear,0,2012-10-12 23:15:00
7:55 PM,46.2,34.2,63,30.38,10.0,Calm,Calm,-,N/A,,Clear,0,2012-10-12 23:55:00
8:15 PM,42.8,34.7,73,30.39,10.0,Calm,Calm,-,N/A,,Clear,0,2012-10-13 00:15:00
8:35 PM,41.9,35.1,77,30.41,10.0,Calm,Calm,-,N/A,,Clear,0,2012-10-13 00:35:00
9:15 PM,40.3,34.5,80,30.42,10.0,Calm,Calm,-,N/A,,Clear,0,2012-10-13 01:15:00
9:35 PM,38.8,34.7,85,30.43,10.0,Calm,Calm,-,N/A,,Clear,0,2012-10-13 01:35:00
9:55 PM,37.4,33.4,86,30.44,10.0,Calm,Calm,-,N/A,,Clear,0,2012-10-13 01:55:00
10:15 PM,38.8,34.2,83,30.44,10.0,Calm,Calm,-,N/A,,Clear,0,2012-10-13 02:15:00
10:35 PM,37.6,34.0,87,30.44,10.0,Calm,Calm,-,N/A,,Clear,0,2012-10-13 02:35:00
10:55 PM,37.8,34.2,87,30.44,10.0,Calm,Calm,-,N/A,,Clear,0,2012-10-13 02:55:00
11:15 PM,36.3,33.1,88,30.45,10.0,Calm,Calm,-,N/A,,Clear,0,2012-10-13 03:15:00
11:35 PM,35.4,32.7,90,30.45,10.0,Calm,Calm,-,N/A,,Clear,0,2012-10-13 03:35:00